createdAt,value
2022-12-17T00:02:02.598Z,22.73
2022-12-17T00:04:47.508Z,24.58
2022-12-17T00:07:32.601Z,21.53
2022-12-17T00:10:17.748Z,27.15
2022-12-17T00:13:04.791Z,26.95
2022-12-17T00:15:53.504Z,23.55
2022-12-17T00:18:39.083Z,27.23
2022-12-17T00:21:24.314Z,24.83
2022-12-17T00:24:09.481Z,24.48
2022-12-17T00:26:54.577Z,25.48
2022-12-17T00:29:41.738Z,26.27
2022-12-17T00:32:27.672Z,25.55
2022-12-17T00:35:12.805Z,37.40
2022-12-17T00:37:57.790Z,25.15
2022-12-17T00:40:42.507Z,29.08
2022-12-17T00:43:29.145Z,27.50
2022-12-17T00:46:14.295Z,28.83
2022-12-17T00:48:59.109Z,25.47
2022-12-17T00:51:44.198Z,28.60
2022-12-17T00:54:29.507Z,23.30
2022-12-17T00:57:14.608Z,26.42
2022-12-17T00:59:59.424Z,27.33
2022-12-17T01:02:44.654Z,26.50
2022-12-17T01:05:30.063Z,28.13
2022-12-17T01:08:15.706Z,24.45
2022-12-17T01:11:00.768Z,27.13
2022-12-17T01:13:45.858Z,26.20
2022-12-17T01:16:31.749Z,26.20
2022-12-17T01:19:17.254Z,27.75
2022-12-17T01:22:03.651Z,28.98
2022-12-17T01:24:48.865Z,31.20
2022-12-17T01:27:33.726Z,28.52
2022-12-17T01:30:18.933Z,24.27
2022-12-17T01:33:03.880Z,24.77
2022-12-17T01:35:56.673Z,23.80
2022-12-17T01:38:41.932Z,20.67
2022-12-17T01:41:27.753Z,23.92
2022-12-17T01:44:12.875Z,25.50
2022-12-17T01:47:00.129Z,27.60
2022-12-17T01:49:45.054Z,29.08
2022-12-17T01:52:34.150Z,21.63
2022-12-17T01:55:19.785Z,24.27
2022-12-17T01:58:04.835Z,26.13
2022-12-17T02:00:50.021Z,28.88
2022-12-17T02:03:36.323Z,27.98
2022-12-17T02:06:24.571Z,23.17
2022-12-17T02:09:23.006Z,26.70
2022-12-17T02:12:15.240Z,22.37
2022-12-17T02:15:03.143Z,17.05
2022-12-17T02:17:54.867Z,27.00
2022-12-17T02:20:45.066Z,25.38
2022-12-17T02:23:53.613Z,22.52
2022-12-17T02:27:01.925Z,19.47
2022-12-17T02:29:50.264Z,18.65
2022-12-17T02:32:36.699Z,26.08
2022-12-17T02:35:23.288Z,23.35
2022-12-17T02:38:08.611Z,25.90
2022-12-17T02:40:56.950Z,28.90
2022-12-17T02:43:43.368Z,22.55
2022-12-17T02:46:28.495Z,28.60
2022-12-17T02:49:13.370Z,26.13
2022-12-17T02:51:58.978Z,24.90
2022-12-17T02:54:48.158Z,25.03
2022-12-17T02:57:33.034Z,33.60
2022-12-17T03:00:18.069Z,32.05
2022-12-17T03:03:03.260Z,30.27
2022-12-17T03:05:48.173Z,27.65
2022-12-17T03:08:33.379Z,38.37
2022-12-17T03:11:18.615Z,20.30
2022-12-17T03:14:03.695Z,33.05
2022-12-17T03:16:49.153Z,25.42
2022-12-17T03:19:34.547Z,20.92
2022-12-17T03:22:19.702Z,29.07
2022-12-17T03:25:18.600Z,36.67
2022-12-17T03:28:03.576Z,33.42
2022-12-17T03:30:49.253Z,32.20
2022-12-17T03:33:34.731Z,34.45
2022-12-17T03:36:19.883Z,27.63
2022-12-17T03:39:04.726Z,32.80
2022-12-17T03:41:49.979Z,32.88
2022-12-17T03:44:34.785Z,33.75
2022-12-17T03:47:19.937Z,32.03
2022-12-17T03:50:04.794Z,31.63
2022-12-17T03:52:49.978Z,28.85
2022-12-17T03:55:34.910Z,29.58
2022-12-17T03:58:19.950Z,30.27
2022-12-17T04:01:04.748Z,28.95
2022-12-17T04:03:49.841Z,27.57
2022-12-17T04:06:34.954Z,26.88
2022-12-17T04:09:20.075Z,35.67
2022-12-17T04:12:04.954Z,27.52
2022-12-17T04:14:49.910Z,21.13
2022-12-17T04:17:34.758Z,36.80
2022-12-17T04:20:19.841Z,32.60
2022-12-17T04:23:04.647Z,30.17
2022-12-17T04:25:49.800Z,30.20
2022-12-17T04:28:40.323Z,32.97
2022-12-17T04:31:25.223Z,28.57
2022-12-17T04:34:10.328Z,37.60
2022-12-17T04:36:55.142Z,33.53
2022-12-17T04:39:40.117Z,43.33
2022-12-17T04:42:24.879Z,38.00
2022-12-17T04:45:09.777Z,35.63
2022-12-17T04:47:54.576Z,41.53
2022-12-17T04:50:39.327Z,30.05
2022-12-17T04:53:25.254Z,40.22
2022-12-17T04:56:12.050Z,34.38
2022-12-17T04:58:57.300Z,33.07
2022-12-17T05:01:43.464Z,34.80
2022-12-17T05:04:28.281Z,41.70
2022-12-17T05:07:13.573Z,36.15
2022-12-17T05:09:58.663Z,34.60
2022-12-17T05:12:43.868Z,36.10
2022-12-17T05:15:39.822Z,32.20
2022-12-17T05:18:25.823Z,20.98
2022-12-17T05:21:10.643Z,31.10
2022-12-17T05:23:55.945Z,27.00
2022-12-17T05:26:44.891Z,36.57
2022-12-17T05:29:29.634Z,23.10
2022-12-17T05:32:14.867Z,33.53
2022-12-17T05:34:59.654Z,39.55
2022-12-17T05:37:44.829Z,29.10
2022-12-17T05:40:30.126Z,41.93
2022-12-17T05:43:16.239Z,38.78
2022-12-17T05:46:01.200Z,34.80
2022-12-17T05:48:46.182Z,33.35
2022-12-17T05:51:34.502Z,23.77
2022-12-17T05:54:22.292Z,35.83
2022-12-17T05:57:07.298Z,35.33
2022-12-17T05:59:52.236Z,37.75
2022-12-17T06:02:37.170Z,30.98
2022-12-17T06:05:22.300Z,31.73
2022-12-17T06:08:07.219Z,38.37
2022-12-17T06:10:51.894Z,38.80
2022-12-17T06:13:37.591Z,40.13
2022-12-17T06:16:22.661Z,43.67
2022-12-17T06:19:07.766Z,36.67
2022-12-17T06:21:53.002Z,30.53
2022-12-17T06:24:41.397Z,39.33
2022-12-17T06:27:30.513Z,40.47
2022-12-17T06:30:18.612Z,24.45
2022-12-17T06:33:04.170Z,38.10
2022-12-17T06:35:49.295Z,25.43
2022-12-17T06:38:34.516Z,41.78
2022-12-17T06:41:20.083Z,39.03
2022-12-17T06:44:05.024Z,23.20
2022-12-17T06:46:50.096Z,32.95
2022-12-17T06:49:35.295Z,33.80
2022-12-17T06:52:20.358Z,31.33
2022-12-17T06:55:05.277Z,23.05
2022-12-17T06:57:50.797Z,28.35
2022-12-17T07:00:35.993Z,31.30
2022-12-17T07:03:24.374Z,26.67
2022-12-17T07:06:09.615Z,40.47
2022-12-17T07:08:54.720Z,31.33
2022-12-17T07:11:42.359Z,34.53
2022-12-17T07:14:27.188Z,32.55
2022-12-17T07:17:12.349Z,27.07
2022-12-17T07:19:57.517Z,31.80
2022-12-17T07:22:42.764Z,28.35
2022-12-17T07:25:27.983Z,24.50
2022-12-17T07:28:13.323Z,28.50
2022-12-17T07:31:00.190Z,16.60
2022-12-17T07:33:45.266Z,26.00
2022-12-17T07:36:30.167Z,25.58
2022-12-17T07:39:15.283Z,30.08
2022-12-17T07:42:01.901Z,31.77
2022-12-17T07:44:46.719Z,27.30
2022-12-17T07:47:31.660Z,28.63
2022-12-17T07:50:17.076Z,25.15
2022-12-17T07:53:01.768Z,19.58
2022-12-17T07:55:46.894Z,14.70
2022-12-17T07:58:32.037Z,34.13
2022-12-17T08:01:20.377Z,23.23
2022-12-17T08:04:05.343Z,33.47
2022-12-17T08:06:50.491Z,34.47
2022-12-17T08:09:35.627Z,23.25
2022-12-17T08:12:20.858Z,27.37
2022-12-17T08:15:05.961Z,21.38
2022-12-17T08:18:07.950Z,25.50
2022-12-17T08:20:53.038Z,18.83
2022-12-17T08:23:38.379Z,25.30
2022-12-17T08:26:24.940Z,28.30
2022-12-17T08:29:09.720Z,23.05
2022-12-17T08:31:55.217Z,29.35
2022-12-17T08:34:40.012Z,33.40
2022-12-17T08:37:24.981Z,32.78
2022-12-17T08:40:09.757Z,24.23
2022-12-17T08:42:54.618Z,24.30
2022-12-17T08:45:39.533Z,23.33
2022-12-17T08:48:25.407Z,22.75
2022-12-17T08:51:10.732Z,26.75
2022-12-17T08:53:55.962Z,30.80
2022-12-17T08:56:41.178Z,24.05
2022-12-17T08:59:26.086Z,25.70
2022-12-17T09:02:27.939Z,26.90
2022-12-17T09:05:13.120Z,18.42
2022-12-17T09:07:58.105Z,26.37
2022-12-17T09:10:43.192Z,27.50
2022-12-17T09:13:28.039Z,32.53
2022-12-17T09:16:13.683Z,27.13
2022-12-17T09:18:59.091Z,21.48
2022-12-17T09:21:45.483Z,26.27
2022-12-17T09:24:30.401Z,22.23
2022-12-17T09:27:15.468Z,28.98
2022-12-17T09:30:00.454Z,32.33
2022-12-17T09:32:45.737Z,30.45
2022-12-17T09:35:30.557Z,23.77
2022-12-17T09:38:16.347Z,24.38
2022-12-17T09:41:04.644Z,28.10
2022-12-17T09:44:01.826Z,25.65
2022-12-17T09:46:58.681Z,31.10
2022-12-17T09:49:45.454Z,27.43
2022-12-17T09:52:39.433Z,30.08
2022-12-17T09:55:32.729Z,30.02
2022-12-17T09:58:18.746Z,26.52
2022-12-17T10:01:03.773Z,13.90
2022-12-17T10:03:49.257Z,28.07
2022-12-17T10:06:42.365Z,35.88
2022-12-17T10:09:32.173Z,32.03
2022-12-17T10:12:18.543Z,25.80
2022-12-17T10:15:04.287Z,23.15
2022-12-17T10:17:49.486Z,28.90
2022-12-17T10:20:40.572Z,36.85
2022-12-17T10:23:25.561Z,36.90
2022-12-17T10:26:11.926Z,33.67
2022-12-17T10:28:56.954Z,32.92
2022-12-17T10:31:44.493Z,34.50
2022-12-17T10:34:36.943Z,34.67
2022-12-17T10:37:22.777Z,32.38
2022-12-17T10:40:15.425Z,29.65
2022-12-17T10:43:00.690Z,25.60
2022-12-17T10:45:49.846Z,24.07
2022-12-17T10:48:55.154Z,31.70
2022-12-17T10:51:46.586Z,28.30
2022-12-17T10:54:49.736Z,31.75
2022-12-17T10:57:55.382Z,26.42
2022-12-17T11:01:10.789Z,27.03
2022-12-17T11:04:07.191Z,17.05
2022-12-17T11:06:53.618Z,26.15
2022-12-17T11:09:48.583Z,27.83
2022-12-17T11:12:34.999Z,22.15
2022-12-17T11:15:26.283Z,21.53
2022-12-17T11:18:11.972Z,27.00
2022-12-17T11:21:25.979Z,33.85
2022-12-17T11:24:11.274Z,25.08
2022-12-17T11:26:58.111Z,30.70
2022-12-17T11:29:43.050Z,21.67
2022-12-17T11:32:41.649Z,34.55
2022-12-17T11:35:37.014Z,31.77
2022-12-17T11:38:28.144Z,23.65
2022-12-17T11:41:42.728Z,30.95
2022-12-17T11:44:27.883Z,28.17
2022-12-17T11:47:21.793Z,27.08
2022-12-17T11:50:13.085Z,37.15
2022-12-17T11:53:04.933Z,30.58
2022-12-17T11:55:50.163Z,34.70
2022-12-17T11:58:55.966Z,34.77
2022-12-17T12:01:44.352Z,24.33
2022-12-17T12:04:36.547Z,35.67
2022-12-17T12:07:29.815Z,28.67
2022-12-17T12:10:17.730Z,38.17
2022-12-17T12:13:15.572Z,28.40
2022-12-17T12:16:09.945Z,31.27
2022-12-17T12:19:18.619Z,34.40
2022-12-17T12:22:28.911Z,37.17
2022-12-17T12:25:21.526Z,35.88
2022-12-17T12:28:12.571Z,35.47
2022-12-17T12:31:02.857Z,44.55
2022-12-17T12:33:51.040Z,44.55
2022-12-17T12:36:37.562Z,42.03
2022-12-17T12:39:22.547Z,30.58
2022-12-17T12:42:16.902Z,37.93
2022-12-17T12:45:02.284Z,34.38
2022-12-17T12:48:18.188Z,38.58
2022-12-17T12:51:12.529Z,39.90
2022-12-17T12:53:57.328Z,36.40
2022-12-17T12:56:52.206Z,36.70
2022-12-17T12:59:44.590Z,36.42
2022-12-17T13:02:49.863Z,32.05
2022-12-17T13:05:34.341Z,38.28
2022-12-17T13:08:18.404Z,40.42
2022-12-17T13:10:44.851Z,37.20
2022-12-17T13:13:29.737Z,38.80
2022-12-17T13:16:04.977Z,31.85
2022-12-17T13:18:34.662Z,31.15
2022-12-17T13:21:05.921Z,39.88
2022-12-17T13:23:33.886Z,43.10
2022-12-17T13:26:12.333Z,36.25
2022-12-17T13:28:39.437Z,38.35
2022-12-17T13:31:06.982Z,32.92
2022-12-17T13:33:38.761Z,36.05
2022-12-17T13:36:14.301Z,38.47
2022-12-17T13:38:46.980Z,38.53
2022-12-17T13:41:14.350Z,38.20
2022-12-17T13:43:43.498Z,42.25
2022-12-17T13:46:26.307Z,42.38
2022-12-17T13:48:53.926Z,35.13
2022-12-17T13:51:21.089Z,37.08
2022-12-17T13:53:54.331Z,31.20
2022-12-17T13:56:25.362Z,37.85
2022-12-17T13:58:52.451Z,29.50
2022-12-17T14:01:18.999Z,36.93
2022-12-17T14:04:11.466Z,34.00
2022-12-17T14:06:38.469Z,32.80
2022-12-17T14:09:05.352Z,39.47
2022-12-17T14:11:51.711Z,37.83
2022-12-17T14:14:27.036Z,32.07
2022-12-17T14:16:53.619Z,32.95
2022-12-17T14:19:24.069Z,24.88
2022-12-17T14:21:50.647Z,35.85
2022-12-17T14:24:18.879Z,29.60
2022-12-17T14:26:52.623Z,36.33
2022-12-17T14:29:23.007Z,34.22
2022-12-17T14:31:53.780Z,34.95
2022-12-17T14:34:20.304Z,33.50
2022-12-17T14:36:47.651Z,35.20
2022-12-17T14:39:28.724Z,28.20
2022-12-17T14:42:29.524Z,32.05
2022-12-17T14:45:00.955Z,28.88
2022-12-17T14:47:31.519Z,38.08
2022-12-17T14:50:18.148Z,32.38
2022-12-17T14:52:53.209Z,35.13
2022-12-17T14:55:22.507Z,38.00
2022-12-17T14:57:49.449Z,35.95
2022-12-17T15:00:15.930Z,35.92
2022-12-17T15:02:43.422Z,41.05
2022-12-17T15:05:13.934Z,38.37
2022-12-17T15:07:40.539Z,35.90
2022-12-17T15:10:14.243Z,38.03
2022-12-17T15:12:41.876Z,39.17
2022-12-17T15:15:11.765Z,40.83
2022-12-17T15:17:38.161Z,36.70
2022-12-17T15:20:04.929Z,37.78
2022-12-17T15:22:31.419Z,40.38
2022-12-17T15:24:57.814Z,43.45
2022-12-17T15:27:24.234Z,43.10
2022-12-17T15:29:50.629Z,47.07
2022-12-17T15:32:20.819Z,40.83
2022-12-17T15:34:47.454Z,43.25
2022-12-17T15:37:14.568Z,39.72
2022-12-17T15:39:41.169Z,45.30
2022-12-17T15:42:27.427Z,45.30
2022-12-17T15:44:53.799Z,38.67
2022-12-17T15:47:20.289Z,49.05
2022-12-17T15:49:46.706Z,50.60
2022-12-17T15:52:15.091Z,52.28
2022-12-17T15:54:44.591Z,54.47
2022-12-17T15:57:15.447Z,41.67
2022-12-17T15:59:45.096Z,48.35
2022-12-17T16:02:12.017Z,42.90
2022-12-17T16:04:38.526Z,36.15
2022-12-17T16:07:05.063Z,33.70
2022-12-17T16:09:31.406Z,39.83
2022-12-17T16:11:57.770Z,41.33
2022-12-17T16:14:24.554Z,43.50
2022-12-17T16:16:51.522Z,27.55
2022-12-17T16:19:17.915Z,45.60
2022-12-17T16:21:46.935Z,38.90
2022-12-17T16:24:13.638Z,39.72
2022-12-17T16:26:40.268Z,41.35
2022-12-17T16:29:06.678Z,39.38
2022-12-17T16:31:33.721Z,42.07
2022-12-17T16:34:00.154Z,40.65
2022-12-17T16:36:26.536Z,46.45
2022-12-17T16:38:53.605Z,42.85
2022-12-17T16:41:20.610Z,42.53
2022-12-17T16:43:47.447Z,44.67
2022-12-17T16:46:23.524Z,46.00
2022-12-17T16:48:49.973Z,36.45
2022-12-17T16:51:19.012Z,49.85
2022-12-17T16:53:50.400Z,49.85
2022-12-17T16:56:23.904Z,45.90
2022-12-17T16:58:50.982Z,47.45
2022-12-17T17:01:20.979Z,46.42
2022-12-17T17:03:47.827Z,47.40
2022-12-17T17:06:14.314Z,49.25
2022-12-17T17:08:40.787Z,51.63
2022-12-17T17:11:13.294Z,44.60
2022-12-17T17:13:39.945Z,47.45
2022-12-17T17:16:06.875Z,52.38
2022-12-17T17:18:33.656Z,43.35
2022-12-17T17:21:35.423Z,54.63
2022-12-17T17:24:03.055Z,43.40
2022-12-17T17:26:31.952Z,50.45
2022-12-17T17:28:58.697Z,46.97
2022-12-17T17:31:46.355Z,50.75
2022-12-17T17:34:13.292Z,46.07
2022-12-17T17:36:40.266Z,33.55
2022-12-17T17:39:06.691Z,43.85
2022-12-17T17:41:33.726Z,44.33
2022-12-17T17:44:01.520Z,55.20
2022-12-17T17:46:28.740Z,51.00
2022-12-17T17:48:57.098Z,48.35
2022-12-17T17:52:00.040Z,52.78
2022-12-17T17:54:14.616Z,42.75
2022-12-17T17:56:41.760Z,29.75
2022-12-17T17:59:10.006Z,48.60
2022-12-17T18:01:38.242Z,41.97
2022-12-17T18:04:06.302Z,55.63
2022-12-17T18:06:32.783Z,52.30
2022-12-17T18:08:59.847Z,51.70
2022-12-17T18:11:27.406Z,50.90
2022-12-17T18:13:56.723Z,57.88
2022-12-17T18:16:35.719Z,57.08
2022-12-17T18:19:04.525Z,57.10
2022-12-17T18:21:31.173Z,62.88
2022-12-17T18:24:05.144Z,68.47
2022-12-17T18:26:32.862Z,48.33
2022-12-17T18:29:02.946Z,69.53
2022-12-17T18:31:30.080Z,66.30
2022-12-17T18:33:57.700Z,65.18
2022-12-17T18:36:25.452Z,55.17
2022-12-17T18:39:12.083Z,66.40
2022-12-17T18:42:00.728Z,65.90
2022-12-17T18:44:27.725Z,73.00
2022-12-17T18:46:54.409Z,75.53
2022-12-17T18:49:22.117Z,73.90
2022-12-17T18:51:49.536Z,73.43
2022-12-17T18:54:17.267Z,60.20
2022-12-17T18:57:01.342Z,68.53
2022-12-17T18:59:30.948Z,73.80
2022-12-17T19:01:57.932Z,49.93
2022-12-17T19:04:27.447Z,65.60
2022-12-17T19:06:54.496Z,71.22
2022-12-17T19:09:25.895Z,51.50
2022-12-17T19:11:52.729Z,78.82
2022-12-17T19:14:22.088Z,74.33
2022-12-17T19:16:48.761Z,64.78
2022-12-17T19:19:15.189Z,58.63
2022-12-17T19:21:41.814Z,62.90
2022-12-17T19:24:09.572Z,73.82
2022-12-17T19:26:35.925Z,64.27
2022-12-17T19:29:02.403Z,53.20
2022-12-17T19:31:29.758Z,65.82
2022-12-17T19:34:00.832Z,32.38
2022-12-17T19:36:28.847Z,62.15
2022-12-17T19:38:57.283Z,42.67
2022-12-17T19:41:24.691Z,47.60
2022-12-17T19:43:55.509Z,40.78
2022-12-17T19:46:21.979Z,42.55
2022-12-17T19:48:49.555Z,40.53
2022-12-17T19:51:16.808Z,52.97
2022-12-17T19:53:44.343Z,52.42
2022-12-17T19:56:16.082Z,47.83
2022-12-17T19:58:43.171Z,52.97
2022-12-17T20:01:11.167Z,54.65
2022-12-17T20:03:40.139Z,48.50
2022-12-17T20:06:07.519Z,54.95
2022-12-17T20:08:34.365Z,58.45
2022-12-17T20:11:01.919Z,56.42
2022-12-17T20:13:28.468Z,62.75
2022-12-17T20:16:01.745Z,35.67
2022-12-17T20:18:28.222Z,55.72
2022-12-17T20:21:01.631Z,51.83
2022-12-17T20:23:28.029Z,49.25
2022-12-17T20:26:23.476Z,60.17
2022-12-17T20:28:49.948Z,51.37
2022-12-17T20:31:16.563Z,47.80
2022-12-17T20:33:43.052Z,57.78
2022-12-17T20:36:11.486Z,55.95
2022-12-17T20:38:38.226Z,66.60
2022-12-17T20:41:11.820Z,54.93
2022-12-17T20:43:38.516Z,57.65
2022-12-17T20:46:05.191Z,55.72
2022-12-17T20:48:31.680Z,46.17
2022-12-17T20:50:58.071Z,58.15
2022-12-17T20:53:24.538Z,45.10
2022-12-17T20:56:00.917Z,49.00
2022-12-17T20:58:27.325Z,54.75
2022-12-17T21:01:01.186Z,46.15
2022-12-17T21:03:27.764Z,51.08
2022-12-17T21:05:54.237Z,50.37
2022-12-17T21:08:20.614Z,48.15
2022-12-17T21:10:47.040Z,62.08
2022-12-17T21:13:31.533Z,55.33
2022-12-17T21:16:01.587Z,55.22
2022-12-17T21:18:28.712Z,44.73
2022-12-17T21:20:59.158Z,43.55
2022-12-17T21:23:26.191Z,60.40
2022-12-17T21:25:58.471Z,57.38
2022-12-17T21:28:25.342Z,48.38
2022-12-17T21:30:51.774Z,50.37
2022-12-17T21:33:18.232Z,54.38
2022-12-17T21:35:44.666Z,46.42
2022-12-17T21:38:11.059Z,58.95
2022-12-17T21:40:37.509Z,55.17
2022-12-17T21:43:03.883Z,45.13
2022-12-17T21:45:37.523Z,61.35
2022-12-17T21:48:04.940Z,61.20
2022-12-17T21:50:42.268Z,44.90
2022-12-17T21:53:10.116Z,62.65
2022-12-17T21:55:36.797Z,67.17
2022-12-17T21:58:03.792Z,59.17
2022-12-17T22:00:30.435Z,53.60
2022-12-17T22:02:56.831Z,57.85
2022-12-17T22:05:23.213Z,60.60
2022-12-17T22:07:50.122Z,59.17
2022-12-17T22:10:39.590Z,56.92
2022-12-17T22:13:23.332Z,53.88
2022-12-17T22:15:49.996Z,58.05
2022-12-17T22:18:16.431Z,56.97
2022-12-17T22:20:42.839Z,58.80
2022-12-17T22:23:09.216Z,57.90
2022-12-17T22:25:36.950Z,55.30
2022-12-17T22:28:03.390Z,65.95
2022-12-17T22:30:48.343Z,65.50
2022-12-17T22:33:24.058Z,65.97
2022-12-17T22:37:00.691Z,61.22
2022-12-17T22:44:23.014Z,68.78
2022-12-17T22:44:44.814Z,63.92
2022-12-17T22:44:53.065Z,61.58
2022-12-17T22:47:20.485Z,78.27
2022-12-17T22:49:46.823Z,50.85
2022-12-17T22:52:13.241Z,59.10
2022-12-17T22:54:40.852Z,61.35
2022-12-17T22:57:34.943Z,54.05
2022-12-17T22:59:57.477Z,60.57
2022-12-17T23:02:23.995Z,61.33
2022-12-17T23:04:50.482Z,67.00
2022-12-17T23:07:16.838Z,36.90
2022-12-17T23:09:43.185Z,42.15
2022-12-17T23:12:28.339Z,56.53
2022-12-17T23:14:54.747Z,62.17
2022-12-17T23:17:21.184Z,68.43
2022-12-17T23:19:47.529Z,60.00
2022-12-17T23:22:21.993Z,62.33
2022-12-17T23:24:48.850Z,40.00
2022-12-17T23:27:15.427Z,56.25
2022-12-17T23:29:42.128Z,49.20
2022-12-17T23:32:08.871Z,54.88
2022-12-17T23:34:35.262Z,76.03
2022-12-17T23:37:01.686Z,56.08
2022-12-17T23:39:28.067Z,47.05
2022-12-17T23:41:55.138Z,60.00
2022-12-17T23:44:21.537Z,44.60
2022-12-17T23:46:47.992Z,57.28
2022-12-17T23:49:17.293Z,49.63
2022-12-17T23:51:43.734Z,46.95
2022-12-17T23:54:10.129Z,42.07
2022-12-17T23:56:36.769Z,47.45
2022-12-17T23:59:03.259Z,41.13
